createdAt,value
2022-12-03T09:33:07.923Z,84.74
2022-12-03T09:34:07.948Z,84.84
2022-12-03T09:35:07.866Z,85.05
2022-12-03T09:36:07.857Z,85.16
2022-12-03T09:37:07.847Z,84.84
2022-12-03T09:38:07.822Z,84.01
2022-12-03T09:39:07.833Z,84.74
2022-12-03T09:40:07.800Z,84.64
2022-12-03T09:41:07.786Z,84.68
2022-12-03T09:42:07.792Z,84.78
2022-12-03T09:43:07.775Z,84.33
2022-12-03T09:44:12.266Z,84.43
2022-12-03T09:45:08.737Z,85.05
2022-12-03T09:46:07.856Z,84.01
2022-12-03T09:47:07.732Z,83.91
2022-12-03T09:48:07.714Z,84.12
2022-12-03T09:49:13.923Z,83.60
2022-12-03T09:50:08.690Z,83.81
2022-12-03T09:51:07.714Z,83.39
2022-12-03T09:52:07.664Z,83.50
2022-12-03T09:53:07.666Z,84.12
2022-12-03T09:54:07.670Z,83.98
2022-12-03T09:55:07.628Z,84.12
2022-12-03T09:56:07.620Z,83.67
2022-12-03T09:57:07.616Z,83.77
2022-12-03T09:58:07.609Z,83.70
2022-12-03T09:59:07.605Z,83.50
2022-12-03T10:00:07.592Z,83.77
2022-12-03T10:01:07.629Z,83.36
2022-12-03T10:02:07.633Z,83.98
2022-12-03T10:03:07.549Z,83.25
2022-12-03T10:04:07.623Z,82.94
2022-12-03T10:05:07.664Z,83.36
2022-12-03T10:06:07.520Z,83.25
2022-12-03T10:07:07.505Z,83.15
2022-12-03T10:08:07.617Z,83.15
2022-12-03T10:09:07.483Z,83.15
2022-12-03T10:10:07.487Z,83.67
2022-12-03T10:11:07.446Z,83.25
2022-12-03T10:12:07.450Z,83.46
2022-12-03T10:13:07.426Z,83.04
2022-12-03T10:14:07.423Z,83.04
2022-12-03T10:15:07.415Z,82.94
2022-12-03T10:16:07.400Z,82.84
2022-12-03T10:17:07.507Z,83.04
2022-12-03T10:18:07.373Z,83.04
2022-12-03T10:19:07.369Z,83.04
2022-12-03T10:20:07.359Z,82.32
2022-12-03T10:21:07.368Z,81.90
2022-12-03T10:22:07.338Z,82.32
2022-12-03T10:23:07.325Z,83.25
2022-12-03T10:24:07.317Z,83.36
2022-12-03T10:25:07.316Z,82.73
2022-12-03T10:26:07.281Z,82.53
2022-12-03T10:27:07.270Z,82.11
2022-12-03T10:28:07.259Z,82.21
2022-12-03T10:29:07.268Z,82.21
2022-12-03T10:30:07.250Z,82.53
2022-12-03T10:31:07.387Z,83.11
2022-12-03T10:32:07.217Z,82.80
2022-12-03T10:33:07.213Z,82.49
2022-12-03T10:34:07.203Z,82.80
2022-12-03T10:35:07.205Z,81.97
2022-12-03T10:36:07.168Z,82.49
2022-12-03T10:37:07.199Z,82.28
2022-12-03T10:38:07.145Z,81.87
2022-12-03T10:39:07.131Z,81.97
2022-12-03T10:40:07.138Z,81.97
2022-12-03T10:41:07.108Z,82.49
2022-12-03T10:42:07.100Z,82.39
2022-12-03T10:43:07.124Z,81.82
2022-12-03T10:44:07.078Z,81.62
2022-12-03T10:45:07.085Z,82.03
2022-12-03T10:46:07.156Z,82.39
2022-12-03T10:47:07.242Z,81.97
2022-12-03T10:48:07.048Z,81.93
2022-12-03T10:49:07.034Z,81.41
2022-12-03T10:50:07.037Z,81.76
2022-12-03T10:51:07.133Z,81.62
2022-12-03T10:52:06.998Z,81.72
2022-12-03T10:53:06.990Z,81.97
2022-12-03T10:54:06.964Z,81.45
2022-12-03T10:55:06.997Z,81.10
2022-12-03T10:56:06.943Z,81.10
2022-12-03T10:57:06.943Z,81.20
2022-12-03T10:58:06.940Z,81.30
2022-12-03T10:59:06.929Z,80.99
2022-12-03T11:00:06.964Z,80.68
2022-12-03T11:01:06.945Z,80.99
2022-12-03T11:02:07.000Z,81.72
2022-12-03T11:03:06.904Z,81.41
2022-12-03T11:04:06.983Z,80.58
2022-12-03T11:05:06.848Z,81.20
2022-12-03T11:06:06.844Z,80.89
2022-12-03T11:07:06.826Z,80.68
2022-12-03T11:08:06.921Z,80.85
2022-12-03T11:09:09.144Z,80.89
2022-12-03T11:10:06.800Z,80.89
2022-12-03T11:11:06.770Z,81.20
2022-12-03T11:12:06.785Z,81.20
2022-12-03T11:13:06.753Z,80.89
2022-12-03T11:14:06.750Z,80.58
2022-12-03T11:15:06.742Z,80.75
2022-12-03T11:16:06.818Z,80.96
2022-12-03T11:17:06.703Z,81.10
2022-12-03T11:18:06.696Z,80.99
2022-12-03T11:19:06.695Z,80.79
2022-12-03T11:20:06.714Z,81.30
2022-12-03T11:21:06.656Z,80.99
2022-12-03T11:22:06.651Z,81.06
2022-12-03T11:23:06.635Z,81.06
2022-12-03T11:24:06.627Z,80.58
2022-12-03T11:25:06.665Z,80.16
2022-12-03T11:26:06.619Z,79.65
2022-12-03T11:27:06.589Z,80.58
2022-12-03T11:28:06.581Z,80.37
2022-12-03T11:29:06.579Z,80.58
2022-12-03T11:30:07.053Z,80.47
2022-12-03T11:31:06.576Z,80.58
2022-12-03T11:32:06.539Z,80.89
2022-12-03T11:33:06.527Z,80.47
2022-12-03T11:34:06.518Z,80.79
2022-12-03T11:35:06.536Z,80.27
2022-12-03T11:36:06.491Z,80.68
2022-12-03T11:37:06.480Z,80.79
2022-12-03T11:38:06.481Z,80.47
2022-12-03T11:39:06.460Z,80.68
2022-12-03T11:40:06.457Z,79.65
2022-12-03T11:41:06.467Z,80.89
2022-12-03T11:42:06.431Z,80.27
2022-12-03T11:43:06.413Z,80.79
2022-12-03T11:44:06.396Z,80.27
2022-12-03T11:45:06.409Z,80.47
2022-12-03T11:46:06.487Z,80.16
2022-12-03T11:47:06.482Z,79.65
2022-12-03T11:48:06.371Z,79.34
2022-12-03T11:49:06.342Z,79.55
2022-12-03T11:50:06.358Z,80.27
2022-12-03T11:51:06.334Z,80.47
2022-12-03T11:52:06.320Z,79.65
2022-12-03T11:53:06.312Z,79.48
2022-12-03T11:54:06.287Z,80.16
2022-12-03T11:55:06.287Z,79.48
2022-12-03T11:56:06.519Z,79.44
2022-12-03T11:57:06.290Z,79.48
2022-12-03T11:58:06.252Z,80.47
2022-12-03T11:59:06.263Z,79.75
2022-12-03T12:00:06.241Z,79.55
2022-12-03T12:01:06.224Z,80.37
2022-12-03T12:02:06.208Z,79.55
2022-12-03T12:03:06.257Z,79.44
2022-12-03T12:04:06.241Z,79.65
2022-12-03T12:05:06.200Z,80.37
2022-12-03T12:06:06.151Z,80.58
2022-12-03T12:07:06.141Z,79.44
2022-12-03T12:08:06.209Z,79.75
2022-12-03T12:09:06.201Z,79.44
2022-12-03T12:10:06.128Z,79.24
2022-12-03T12:11:06.126Z,79.24
2022-12-03T12:12:06.098Z,79.44
2022-12-03T12:13:06.103Z,79.24
2022-12-03T12:14:06.068Z,79.44
2022-12-03T12:15:06.057Z,79.96
2022-12-03T12:16:06.163Z,79.55
2022-12-03T12:17:06.033Z,79.41
2022-12-03T12:18:06.028Z,79.03
2022-12-03T12:19:06.019Z,79.03
2022-12-03T12:20:05.990Z,79.13
2022-12-03T12:21:06.010Z,79.03
2022-12-03T12:22:05.964Z,79.13
2022-12-03T12:23:05.963Z,79.13
2022-12-03T12:24:05.959Z,79.13
2022-12-03T12:25:05.952Z,78.92
2022-12-03T12:26:06.074Z,78.92
2022-12-03T12:27:05.917Z,79.03
2022-12-03T12:28:05.917Z,78.78
2022-12-03T12:29:05.929Z,79.24
2022-12-03T12:30:05.881Z,79.13
2022-12-03T12:31:05.910Z,79.03
2022-12-03T12:32:05.952Z,78.72
2022-12-03T12:33:05.848Z,79.03
2022-12-03T12:34:05.849Z,79.13
2022-12-03T12:35:05.825Z,78.92
2022-12-03T12:36:05.823Z,79.24
2022-12-03T12:37:05.800Z,79.13
2022-12-03T12:38:05.808Z,78.92
2022-12-03T12:39:05.791Z,79.13
2022-12-03T12:40:05.767Z,79.24
2022-12-03T12:41:05.818Z,79.44
2022-12-03T12:42:05.758Z,79.55
2022-12-03T12:43:12.694Z,79.75
2022-12-03T12:44:06.720Z,80.37
2022-12-03T12:45:05.747Z,80.06
2022-12-03T12:46:38.564Z,79.85
2022-12-03T12:47:06.728Z,79.65
2022-12-03T12:48:05.691Z,79.13
2022-12-03T12:49:05.688Z,79.03
2022-12-03T12:50:05.652Z,79.24
2022-12-03T12:51:05.650Z,79.03
2022-12-03T12:52:05.663Z,79.30
2022-12-03T12:53:05.634Z,79.20
2022-12-03T12:54:05.630Z,79.13
2022-12-03T12:55:05.599Z,78.82
2022-12-03T12:56:05.591Z,79.03
2022-12-03T12:57:05.596Z,78.61
2022-12-03T12:58:05.559Z,79.03
2022-12-03T12:59:05.551Z,79.03
2022-12-03T13:00:05.554Z,78.41
2022-12-03T13:01:05.635Z,79.75
2022-12-03T13:02:10.131Z,78.92
2022-12-03T13:03:05.507Z,78.82
2022-12-03T13:04:05.509Z,80.47
2022-12-03T13:05:05.483Z,79.24
2022-12-03T13:06:05.490Z,79.48
2022-12-03T13:07:05.475Z,79.44
2022-12-03T13:08:10.287Z,79.44
2022-12-03T13:09:06.452Z,80.99
2022-12-03T13:10:05.436Z,80.47
2022-12-03T13:11:05.422Z,79.44
2022-12-03T13:12:05.435Z,79.79
2022-12-03T13:13:05.393Z,80.37
2022-12-03T13:14:05.390Z,80.16
2022-12-03T13:15:05.384Z,80.37
2022-12-03T13:16:05.397Z,80.16
2022-12-03T13:17:05.385Z,79.79
2022-12-03T13:18:05.345Z,79.79
2022-12-03T13:19:05.339Z,79.55
2022-12-03T13:20:07.853Z,80.41
2022-12-03T13:21:05.306Z,80.00
2022-12-03T13:22:05.315Z,79.55
2022-12-03T13:23:05.280Z,80.21
2022-12-03T13:24:05.323Z,80.47
2022-12-03T13:25:05.271Z,80.93
2022-12-03T13:26:22.288Z,80.58
2022-12-03T13:27:06.265Z,80.37
2022-12-03T13:28:05.234Z,80.93
2022-12-03T13:29:05.240Z,80.79
2022-12-03T13:30:05.212Z,80.47
2022-12-03T13:31:05.218Z,80.79
2022-12-03T13:32:05.283Z,80.83
2022-12-03T13:33:05.196Z,80.21
2022-12-03T13:34:05.167Z,80.37
2022-12-03T13:35:05.164Z,80.58
2022-12-03T13:36:05.131Z,80.93
2022-12-03T13:37:05.147Z,80.62
2022-12-03T13:38:05.120Z,80.62
2022-12-03T13:39:05.115Z,80.83
2022-12-03T13:40:05.098Z,80.73
2022-12-03T13:41:05.076Z,80.79
2022-12-03T13:42:05.071Z,80.58
2022-12-03T13:43:05.056Z,80.27
2022-12-03T13:44:05.038Z,81.10
2022-12-03T13:45:05.046Z,80.73
2022-12-03T13:46:05.094Z,81.10
2022-12-03T13:47:05.034Z,80.27
2022-12-03T13:48:05.009Z,80.79
2022-12-03T13:49:05.013Z,80.89
2022-12-03T13:50:04.984Z,80.27
2022-12-03T13:51:04.989Z,80.99
2022-12-03T13:52:04.987Z,80.47
2022-12-03T13:53:04.941Z,80.37
2022-12-03T13:54:04.948Z,80.99
2022-12-03T13:55:04.940Z,80.73
2022-12-03T13:56:04.918Z,81.10
2022-12-03T13:57:04.910Z,80.89
2022-12-03T13:58:04.883Z,80.68
2022-12-03T13:59:04.874Z,79.65
2022-12-03T14:00:04.861Z,80.58
2022-12-03T14:01:04.910Z,80.89
2022-12-03T14:02:04.890Z,80.37
2022-12-03T14:03:04.857Z,79.55
2022-12-03T14:04:04.828Z,80.10
2022-12-03T14:05:04.843Z,80.99
2022-12-03T14:06:04.797Z,80.16
2022-12-03T14:07:04.812Z,80.47
2022-12-03T14:08:04.859Z,80.79
2022-12-03T14:09:04.789Z,80.31
2022-12-03T14:10:04.767Z,80.21
2022-12-03T14:11:04.743Z,81.14
2022-12-03T14:12:04.750Z,80.83
2022-12-03T14:13:04.731Z,80.73
2022-12-03T14:14:04.712Z,80.83
2022-12-03T14:15:04.701Z,81.66
2022-12-03T14:16:04.755Z,80.93
2022-12-03T14:17:04.806Z,81.14
2022-12-03T14:18:04.680Z,80.73
2022-12-03T14:19:04.653Z,81.24
2022-12-03T14:20:04.648Z,81.04
2022-12-03T14:21:04.648Z,80.93
2022-12-03T14:22:04.632Z,80.83
2022-12-03T14:23:04.616Z,81.04
2022-12-03T14:24:04.606Z,80.73
2022-12-03T14:25:04.611Z,81.14
2022-12-03T14:26:04.567Z,80.93
2022-12-03T14:27:04.589Z,81.35
2022-12-03T14:28:04.544Z,81.24
2022-12-03T14:29:08.550Z,81.45
2022-12-03T14:30:04.537Z,80.93
2022-12-03T14:31:04.513Z,81.24
2022-12-03T14:32:04.607Z,81.14
2022-12-03T14:33:04.504Z,81.04
2022-12-03T14:34:04.487Z,81.24
2022-12-03T14:35:09.692Z,81.45
2022-12-03T14:36:05.466Z,81.14
2022-12-03T14:37:04.504Z,81.07
2022-12-03T14:38:04.443Z,81.56
2022-12-03T14:39:04.437Z,81.56
2022-12-03T14:40:04.412Z,81.04
2022-12-03T14:41:04.403Z,81.28
2022-12-03T14:42:04.405Z,80.73
2022-12-03T14:43:04.379Z,81.45
2022-12-03T14:44:04.367Z,81.56
2022-12-03T14:45:04.385Z,81.56
2022-12-03T14:46:04.385Z,81.35
2022-12-03T14:47:04.362Z,81.24
2022-12-03T14:48:04.398Z,80.93
2022-12-03T14:49:04.336Z,81.59
2022-12-03T14:50:04.395Z,80.93
2022-12-03T14:51:04.289Z,81.24
2022-12-03T14:52:04.300Z,81.04
2022-12-03T14:53:04.314Z,81.04
2022-12-03T14:54:04.357Z,80.93
2022-12-03T14:55:04.245Z,81.14
2022-12-03T14:56:04.243Z,81.04
2022-12-03T14:57:04.241Z,81.04
2022-12-03T14:58:04.207Z,81.66
2022-12-03T14:59:04.274Z,81.87
2022-12-03T15:00:04.182Z,81.97
2022-12-03T15:01:05.162Z,81.14
2022-12-03T15:02:04.257Z,81.45
2022-12-03T15:03:04.202Z,81.97
2022-12-03T15:04:04.138Z,81.76
2022-12-03T15:05:04.144Z,81.87
2022-12-03T15:06:04.130Z,81.87
2022-12-03T15:07:04.135Z,81.66
2022-12-03T15:08:04.137Z,81.76
2022-12-03T15:09:04.121Z,81.56
2022-12-03T15:10:04.146Z,82.07
2022-12-03T15:11:04.082Z,81.76
2022-12-03T15:12:04.067Z,81.38
2022-12-03T15:13:04.061Z,81.97
2022-12-03T15:14:04.026Z,82.07
2022-12-03T15:15:04.035Z,81.90
2022-12-03T15:16:04.005Z,82.18
2022-12-03T15:17:04.094Z,81.76
2022-12-03T15:18:03.979Z,81.87
2022-12-03T15:19:03.987Z,81.97
2022-12-03T15:20:03.983Z,82.18
2022-12-03T15:21:04.002Z,82.18
2022-12-03T15:22:03.943Z,82.39
2022-12-03T15:23:03.952Z,81.97
2022-12-03T15:24:03.926Z,81.97
2022-12-03T15:25:03.932Z,82.49
2022-12-03T15:26:03.982Z,83.22
2022-12-03T15:27:03.936Z,83.01
2022-12-03T15:28:03.870Z,82.80
2022-12-03T15:29:03.872Z,83.01
2022-12-03T15:30:03.873Z,83.22
2022-12-03T15:31:03.884Z,82.90
